sensor_id;sensor_type;location;lat;lon;timestamp;temperature;humidity
22418;DHT22;11376;50.932;4.442;2023-07-13T20:30:36;21.10;99.90
22418;DHT22;11376;50.932;4.442;2023-07-13T20:33:04;20.60;99.90
22418;DHT22;11376;50.932;4.442;2023-07-13T20:35:31;20.60;99.90
22418;DHT22;11376;50.932;4.442;2023-07-13T20:37:57;20.60;99.90
22418;DHT22;11376;50.932;4.442;2023-07-13T20:40:24;20.60;99.90
22418;DHT22;11376;50.932;4.442;2023-07-13T20:42:50;20.60;99.90
22418;DHT22;11376;50.932;4.442;2023-07-13T20:45:16;20.40;99.90
22418;DHT22;11376;50.932;4.442;2023-07-13T20:47:44;20.30;99.90
22418;DHT22;11376;50.932;4.442;2023-07-13T20:52:51;20.30;99.90
22418;DHT22;11376;50.932;4.442;2023-07-13T20:55:20;20.20;99.90
22418;DHT22;11376;50.932;4.442;2023-07-13T20:57:46;20.10;99.90
22418;DHT22;11376;50.932;4.442;2023-07-13T21:00:24;20.10;99.90
22418;DHT22;11376;50.932;4.442;2023-07-13T21:02:59;20.00;99.90
22418;DHT22;11376;50.932;4.442;2023-07-13T21:05:30;20.00;99.90
22418;DHT22;11376;50.932;4.442;2023-07-13T21:07:58;20.00;99.90
22418;DHT22;11376;50.932;4.442;2023-07-13T21:10:26;19.90;99.90
22418;DHT22;11376;50.932;4.442;2023-07-13T21:12:53;19.90;99.90
22418;DHT22;11376;50.932;4.442;2023-07-13T21:15:26;19.80;99.90
22418;DHT22;11376;50.932;4.442;2023-07-13T21:17:54;19.80;99.90
22418;DHT22;11376;50.932;4.442;2023-07-13T21:20:30;19.70;99.90
22418;DHT22;11376;50.932;4.442;2023-07-13T21:22:57;19.60;99.90
22418;DHT22;11376;50.932;4.442;2023-07-13T21:25:27;19.50;99.90
22418;DHT22;11376;50.932;4.442;2023-07-13T21:27:55;19.50;99.90
22418;DHT22;11376;50.932;4.442;2023-07-13T21:30:27;19.40;99.90
22418;DHT22;11376;50.932;4.442;2023-07-13T21:32:55;19.40;99.90
22418;DHT22;11376;50.932;4.442;2023-07-13T21:37:53;19.30;99.90
22418;DHT22;11376;50.932;4.442;2023-07-13T21:40:20;19.20;99.90
22418;DHT22;11376;50.932;4.442;2023-07-13T21:42:46;19.20;99.90
22418;DHT22;11376;50.932;4.442;2023-07-13T21:45:24;19.20;99.90
22418;DHT22;11376;50.932;4.442;2023-07-13T21:47:51;19.10;99.90
22418;DHT22;11376;50.932;4.442;2023-07-13T21:50:19;19.10;99.90
22418;DHT22;11376;50.932;4.442;2023-07-13T21:52:45;19.10;99.90
22418;DHT22;11376;50.932;4.442;2023-07-13T21:55:17;19.10;99.90
22418;DHT22;11376;50.932;4.442;2023-07-13T21:57:46;19.10;99.90
22418;DHT22;11376;50.932;4.442;2023-07-13T22:00:31;19.10;99.90
22418;DHT22;11376;50.932;4.442;2023-07-13T22:02:59;19.10;99.90
22418;DHT22;11376;50.932;4.442;2023-07-13T22:05:24;19.10;99.90
22418;DHT22;11376;50.932;4.442;2023-07-13T22:07:51;19.10;99.90
22418;DHT22;11376;50.932;4.442;2023-07-13T22:10:20;19.10;99.90
22418;DHT22;11376;50.932;4.442;2023-07-13T22:12:46;19.00;99.90
22418;DHT22;11376;50.932;4.442;2023-07-13T22:15:14;19.10;99.90
22418;DHT22;11376;50.932;4.442;2023-07-13T22:17:48;19.00;99.90
22418;DHT22;11376;50.932;4.442;2023-07-13T22:20:20;19.00;99.90
22418;DHT22;11376;50.932;4.442;2023-07-13T22:22:46;18.90;99.90
22418;DHT22;11376;50.932;4.442;2023-07-13T22:25:13;18.90;99.90
22418;DHT22;11376;50.932;4.442;2023-07-13T22:27:39;18.90;99.90
22418;DHT22;11376;50.932;4.442;2023-07-13T22:30:05;18.80;99.90
22418;DHT22;11376;50.932;4.442;2023-07-13T22:32:33;18.80;99.90
22418;DHT22;11376;50.932;4.442;2023-07-13T22:34:59;18.70;99.90
22418;DHT22;11376;50.932;4.442;2023-07-13T22:37:25;18.70;99.90
22418;DHT22;11376;50.932;4.442;2023-07-13T22:39:51;18.80;99.90
22418;DHT22;11376;50.932;4.442;2023-07-13T22:42:17;18.80;99.90
22418;DHT22;11376;50.932;4.442;2023-07-13T22:44:42;18.70;99.90
22418;DHT22;11376;50.932;4.442;2023-07-13T22:47:15;18.70;99.90
22418;DHT22;11376;50.932;4.442;2023-07-13T22:49:41;18.60;99.90
22418;DHT22;11376;50.932;4.442;2023-07-13T22:52:10;18.60;99.90
22418;DHT22;11376;50.932;4.442;2023-07-13T22:54:37;18.50;99.90
22418;DHT22;11376;50.932;4.442;2023-07-13T22:57:03;18.50;99.90
22418;DHT22;11376;50.932;4.442;2023-07-13T22:59:28;18.50;99.90
22418;DHT22;11376;50.932;4.442;2023-07-13T23:01:55;18.50;99.90
22418;DHT22;11376;50.932;4.442;2023-07-13T23:04:26;18.50;99.90
22418;DHT22;11376;50.932;4.442;2023-07-13T23:06:52;18.50;99.90
22418;DHT22;11376;50.932;4.442;2023-07-13T23:09:20;18.50;99.90
22418;DHT22;11376;50.932;4.442;2023-07-13T23:11:46;18.40;99.90
22418;DHT22;11376;50.932;4.442;2023-07-13T23:14:12;18.40;99.90
22418;DHT22;11376;50.932;4.442;2023-07-13T23:16:39;18.40;99.90
22418;DHT22;11376;50.932;4.442;2023-07-13T23:19:08;18.40;99.90
22418;DHT22;11376;50.932;4.442;2023-07-13T23:21:38;18.30;99.90
22418;DHT22;11376;50.932;4.442;2023-07-13T23:24:08;18.30;99.90
22418;DHT22;11376;50.932;4.442;2023-07-13T23:26:36;18.30;99.90
22418;DHT22;11376;50.932;4.442;2023-07-13T23:29:02;18.30;99.90
22418;DHT22;11376;50.932;4.442;2023-07-13T23:31:31;18.20;99.90
22418;DHT22;11376;50.932;4.442;2023-07-13T23:33:58;18.20;99.90
22418;DHT22;11376;50.932;4.442;2023-07-13T23:36:25;18.10;99.90
22418;DHT22;11376;50.932;4.442;2023-07-13T23:38:52;18.10;99.90
22418;DHT22;11376;50.932;4.442;2023-07-13T23:41:19;18.10;99.90
22418;DHT22;11376;50.932;4.442;2023-07-13T23:43:46;18.00;99.90
22418;DHT22;11376;50.932;4.442;2023-07-13T23:48:50;18.00;99.90
22418;DHT22;11376;50.932;4.442;2023-07-13T23:51:20;17.90;99.90
22418;DHT22;11376;50.932;4.442;2023-07-13T23:53:47;17.90;99.90
22418;DHT22;11376;50.932;4.442;2023-07-13T23:56:23;17.90;99.90
22418;DHT22;11376;50.932;4.442;2023-07-13T23:58:52;17.80;99.90
